Time;durP1;ratioP1;P1;durP2;ratioP2;P2;SDS_P1;SDS_P2;PMS_P1;PMS_P2;Temp;Humidity;BMP_temperature;BMP_pressure;BME280_temperature;BME280_humidity;BME280_pressure;Samples;Min_cycle;Max_cycle;Signal;HPM_P1;HPM_P2
2023/01/26 00:01:50;;;;;;;50.53;19.77;;;;;;;;;;5079903;28;20089;-78
2023/01/26 00:04:16;;;;;;;55.95;22.80;;;;;;;;;;5102254;28;20075;-78
2023/01/26 00:06:42;;;;;;;45.88;20.02;;;;;;;;;;5090726;28;20035;-77
2023/01/26 00:09:11;;;;;;;53.15;21.65;;;;;;;;;;5091158;28;20132;-77
2023/01/26 00:11:38;;;;;;;59.20;22.67;;;;;;;;;;5092745;28;20024;-77
2023/01/26 00:14:04;;;;;;;54.30;20.63;;;;;;;;;;5081535;28;20040;-78
2023/01/26 00:16:30;;;;;;;48.22;20.38;;;;;;;;;;5094772;28;20035;-80
2023/01/26 00:18:56;;;;;;;55.88;23.50;;;;;;;;;;5086503;28;20074;-77
2023/01/26 00:21:23;;;;;;;58.35;23.30;;;;;;;;;;5078409;28;20024;-77
2023/01/26 00:23:50;;;;;;;51.97;19.95;;;;;;;;;;5096357;28;20032;-77
2023/01/26 00:26:18;;;;;;;57.97;22.13;;;;;;;;;;5084159;28;20379;-76
2023/01/26 00:28:44;;;;;;;56.35;21.08;;;;;;;;;;5101444;28;20055;-76
2023/01/26 00:31:12;;;;;;;62.65;22.55;;;;;;;;;;5093751;28;20403;-77
2023/01/26 00:33:38;;;;;;;59.63;21.90;;;;;;;;;;5079281;28;20090;-76
2023/01/26 00:36:05;;;;;;;54.40;21.38;;;;;;;;;;5089565;28;20032;-77
2023/01/26 00:38:31;;;;;;;55.33;22.00;;;;;;;;;;5094614;28;20361;-78
2023/01/26 00:40:57;;;;;;;52.15;21.08;;;;;;;;;;5108579;28;20034;-77
2023/01/26 00:43:23;;;;;;;49.20;20.33;;;;;;;;;;5097074;28;20115;-76
2023/01/26 00:45:49;;;;;;;65.43;21.77;;;;;;;;;;5072643;28;20389;-77
2023/01/26 00:48:15;;;;;;;52.28;21.60;;;;;;;;;;5071759;28;20422;-77
2023/01/26 00:50:41;;;;;;;58.08;22.30;;;;;;;;;;5091012;28;20031;-76
2023/01/26 00:53:07;;;;;;;55.90;21.38;;;;;;;;;;5091995;28;20028;-77
2023/01/26 00:55:33;;;;;;;54.70;22.27;;;;;;;;;;5091437;28;20031;-77
2023/01/26 00:58:03;;;;;;;51.05;20.60;;;;;;;;;;5087957;28;20032;-76
2023/01/26 01:00:29;;;;;;;58.47;22.67;;;;;;;;;;5088359;28;20031;-77
2023/01/26 01:02:56;;;;;;;58.28;22.95;;;;;;;;;;5095585;28;20639;-76
2023/01/26 01:05:26;;;;;;;62.00;21.42;;;;;;;;;;5094654;28;20032;-77
2023/01/26 01:07:52;;;;;;;55.13;20.30;;;;;;;;;;5070233;28;20559;-78
2023/01/26 01:10:18;;;;;;;52.70;20.70;;;;;;;;;;5087072;28;20084;-77
2023/01/26 01:12:44;;;;;;;71.40;29.08;;;;;;;;;;5094267;28;20042;-78
2023/01/26 01:15:11;;;;;;;61.15;22.42;;;;;;;;;;5085599;28;20085;-78
2023/01/26 01:17:37;;;;;;;56.10;23.13;;;;;;;;;;5081025;28;20085;-80
2023/01/26 01:20:04;;;;;;;54.05;22.17;;;;;;;;;;5091993;28;20036;-77
2023/01/26 01:22:30;;;;;;;62.00;20.42;;;;;;;;;;5097764;28;20032;-77
2023/01/26 01:24:56;;;;;;;55.63;21.52;;;;;;;;;;5095980;28;20035;-77
2023/01/26 01:27:23;;;;;;;57.88;21.10;;;;;;;;;;5088556;28;20032;-77
2023/01/26 01:29:49;;;;;;;59.63;23.20;;;;;;;;;;5089547;28;20435;-78
2023/01/26 01:32:16;;;;;;;57.17;21.95;;;;;;;;;;5086872;28;20027;-78
2023/01/26 01:34:42;;;;;;;55.65;22.83;;;;;;;;;;5083812;28;20357;-77
2023/01/26 01:37:08;;;;;;;53.70;21.40;;;;;;;;;;5090703;28;20488;-81
2023/01/26 01:39:34;;;;;;;60.55;21.25;;;;;;;;;;5099059;28;20031;-78
2023/01/26 01:42:00;;;;;;;61.83;22.88;;;;;;;;;;5110703;28;20035;-77
2023/01/26 01:44:26;;;;;;;57.63;21.15;;;;;;;;;;5080461;28;20050;-78
2023/01/26 01:46:58;;;;;;;59.13;21.80;;;;;;;;;;5105494;28;20063;-78
2023/01/26 01:49:36;;;;;;;58.75;21.80;;;;;;;;;;5105947;28;20373;-77
2023/01/26 01:52:06;;;;;;;56.10;22.10;;;;;;;;;;5082529;28;20142;-76
2023/01/26 01:54:34;;;;;;;59.55;22.55;;;;;;;;;;5090688;28;20499;-77
2023/01/26 01:57:02;;;;;;;57.85;21.65;;;;;;;;;;5090061;28;20468;-77
2023/01/26 01:59:29;;;;;;;55.50;22.20;;;;;;;;;;5097336;28;20158;-77
2023/01/26 02:01:56;;;;;;;54.85;19.15;;;;;;;;;;5096613;28;20048;-77
2023/01/26 02:04:23;;;;;;;58.03;20.40;;;;;;;;;;5093102;28;20123;-76
2023/01/26 02:06:54;;;;;;;56.97;21.63;;;;;;;;;;5097243;28;20391;-76
2023/01/26 02:12:12;;;;;;;48.97;19.33;;;;;;;;;;5095886;28;20077;-77
2023/01/26 02:14:38;;;;;;;47.03;18.98;;;;;;;;;;5089940;28;20032;-77
2023/01/26 02:17:04;;;;;;;52.03;20.40;;;;;;;;;;5089981;28;20028;-79
2023/01/26 02:19:47;;;;;;;49.45;19.95;;;;;;;;;;5091346;28;20059;-77
2023/01/26 02:22:20;;;;;;;50.08;19.73;;;;;;;;;;5092905;28;20482;-77
2023/01/26 02:24:46;;;;;;;57.28;21.10;;;;;;;;;;5099445;28;20035;-79
2023/01/26 02:27:12;;;;;;;53.05;21.05;;;;;;;;;;5094342;28;20039;-77
2023/01/26 02:29:38;;;;;;;51.00;20.75;;;;;;;;;;5090221;28;20032;-77
2023/01/26 02:32:05;;;;;;;45.83;19.33;;;;;;;;;;5094984;28;20122;-77
2023/01/26 02:34:31;;;;;;;54.40;19.60;;;;;;;;;;5103431;28;20039;-77
2023/01/26 02:37:00;;;;;;;49.97;19.67;;;;;;;;;;5074129;28;20037;-78
2023/01/26 02:39:26;;;;;;;48.20;20.17;;;;;;;;;;5091878;28;20028;-78
2023/01/26 02:44:41;;;;;;;51.55;19.55;;;;;;;;;;5091874;28;20507;-77
2023/01/26 02:47:14;;;;;;;52.17;20.95;;;;;;;;;;5092522;28;20046;-76
2023/01/26 02:49:46;;;;;;;48.05;19.80;;;;;;;;;;5074930;28;20020;-77
2023/01/26 02:52:12;;;;;;;58.42;21.20;;;;;;;;;;5089110;28;20059;-78
2023/01/26 02:57:23;;;;;;;52.45;19.40;;;;;;;;;;5099421;28;20119;-77
2023/01/26 02:59:49;;;;;;;53.20;20.08;;;;;;;;;;5071250;28;20498;-78
2023/01/26 03:02:15;;;;;;;55.17;21.25;;;;;;;;;;5090792;28;20060;-77
2023/01/26 03:04:42;;;;;;;49.10;18.77;;;;;;;;;;5091793;28;20032;-77
2023/01/26 03:07:09;;;;;;;50.75;20.77;;;;;;;;;;5099382;28;20028;-78
2023/01/26 03:09:35;;;;;;;56.40;20.88;;;;;;;;;;5092457;28;20020;-77
2023/01/26 03:12:01;;;;;;;53.80;19.90;;;;;;;;;;5091396;28;20516;-77
2023/01/26 03:14:27;;;;;;;52.55;20.15;;;;;;;;;;5094458;28;20039;-77
2023/01/26 03:16:54;;;;;;;57.30;21.08;;;;;;;;;;5096088;28;20492;-77
2023/01/26 03:27:37;;;;;;;50.20;19.23;;;;;;;;;;5091102;28;20138;-78
2023/01/26 03:30:04;;;;;;;56.08;20.33;;;;;;;;;;5091534;28;20099;-78
2023/01/26 03:32:30;;;;;;;46.65;20.15;;;;;;;;;;5076691;28;20118;-82
2023/01/26 03:34:56;;;;;;;55.85;21.23;;;;;;;;;;5093929;28;20047;-78
2023/01/26 03:37:22;;;;;;;51.28;18.58;;;;;;;;;;5098949;28;20020;-78
2023/01/26 03:56:31;;;;;;;60.22;21.25;;;;;;;;;;5094108;28;20075;-77
2023/01/26 03:59:07;;;;;;;49.75;19.85;;;;;;;;;;5089940;28;20035;-77
2023/01/26 04:01:34;;;;;;;49.58;19.50;;;;;;;;;;5088540;28;20035;-77
2023/01/26 04:09:32;;;;;;;52.58;22.30;;;;;;;;;;5094287;28;20035;-77
2023/01/26 04:11:58;;;;;;;53.50;20.45;;;;;;;;;;5091085;28;20113;-76
2023/01/26 04:22:42;;;;;;;56.58;21.60;;;;;;;;;;5095747;28;20047;-76
2023/01/26 04:25:08;;;;;;;52.22;20.35;;;;;;;;;;5088353;28;20028;-79
2023/01/26 04:27:34;;;;;;;49.05;19.23;;;;;;;;;;5092382;28;20499;-77
2023/01/26 04:30:02;;;;;;;54.90;22.33;;;;;;;;;;5079298;28;20032;-77
2023/01/26 04:32:28;;;;;;;54.70;22.38;;;;;;;;;;5104837;28;20036;-76
2023/01/26 04:34:54;;;;;;;53.00;22.48;;;;;;;;;;5075796;28;20031;-77
2023/01/26 04:37:20;;;;;;;59.00;21.00;;;;;;;;;;5099925;28;20020;-76
2023/01/26 04:39:46;;;;;;;63.38;21.73;;;;;;;;;;5087816;28;20077;-77
2023/01/26 04:42:12;;;;;;;65.72;22.13;;;;;;;;;;5073252;28;20036;-77
2023/01/26 04:44:38;;;;;;;56.10;22.23;;;;;;;;;;5084299;28;20426;-76
2023/01/26 04:47:04;;;;;;;65.13;22.83;;;;;;;;;;5091458;28;20036;-80
2023/01/26 04:49:30;;;;;;;53.15;21.08;;;;;;;;;;5094329;28;20019;-77
2023/01/26 04:51:56;;;;;;;62.70;21.23;;;;;;;;;;5088046;28;20032;-76
2023/01/26 04:54:22;;;;;;;62.03;23.10;;;;;;;;;;5093902;28;20036;-78
2023/01/26 04:56:49;;;;;;;72.60;22.60;;;;;;;;;;5089185;28;20054;-76
2023/01/26 04:59:15;;;;;;;55.35;21.98;;;;;;;;;;5088724;28;20044;-77
2023/01/26 05:01:41;;;;;;;65.47;21.67;;;;;;;;;;5091131;28;20024;-76
2023/01/26 05:04:07;;;;;;;56.70;20.88;;;;;;;;;;5100295;28;20047;-78
2023/01/26 05:06:33;;;;;;;63.20;22.25;;;;;;;;;;5097473;28;20124;-78
2023/01/26 05:08:59;;;;;;;63.05;22.88;;;;;;;;;;5090274;28;20028;-79
2023/01/26 05:11:25;;;;;;;56.67;21.33;;;;;;;;;;5085837;28;20701;-77
2023/01/26 05:13:51;;;;;;;54.65;21.98;;;;;;;;;;5093322;28;20064;-77
2023/01/26 05:16:18;;;;;;;59.65;21.92;;;;;;;;;;5078032;28;20035;-76
2023/01/26 05:18:44;;;;;;;62.60;21.27;;;;;;;;;;5093642;28;20024;-77
2023/01/26 05:21:11;;;;;;;66.90;21.98;;;;;;;;;;5088395;28;20032;-76
2023/01/26 05:23:37;;;;;;;55.13;21.90;;;;;;;;;;5104402;28;20054;-78
2023/01/26 05:26:04;;;;;;;54.47;19.15;;;;;;;;;;5066050;28;20039;-77
2023/01/26 05:28:30;;;;;;;61.30;21.40;;;;;;;;;;5083812;28;20047;-77
2023/01/26 05:30:56;;;;;;;48.20;19.52;;;;;;;;;;5089646;28;20136;-77
2023/01/26 05:33:22;;;;;;;49.83;20.13;;;;;;;;;;5089999;28;20039;-76
2023/01/26 05:35:52;;;;;;;54.55;20.13;;;;;;;;;;5105952;28;20492;-76
2023/01/26 05:38:18;;;;;;;64.55;23.17;;;;;;;;;;5101103;28;20127;-77
2023/01/26 05:40:44;;;;;;;59.33;24.65;;;;;;;;;;5078430;28;20032;-76
2023/01/26 05:43:11;;;;;;;64.72;25.00;;;;;;;;;;5073401;28;20508;-77
2023/01/26 05:45:37;;;;;;;60.78;22.77;;;;;;;;;;5080622;28;20028;-76
2023/01/26 05:48:03;;;;;;;63.85;24.95;;;;;;;;;;5070766;28;20067;-77
2023/01/26 05:50:29;;;;;;;58.63;21.65;;;;;;;;;;5095163;28;20016;-76
2023/01/26 05:52:56;;;;;;;58.33;22.80;;;;;;;;;;5096777;28;20449;-76
2023/01/26 05:55:22;;;;;;;66.82;22.00;;;;;;;;;;5087365;28;20473;-77
2023/01/26 05:57:48;;;;;;;50.45;20.15;;;;;;;;;;5096400;28;20396;-77
2023/01/26 06:00:14;;;;;;;52.83;21.02;;;;;;;;;;5091868;28;20028;-77
2023/01/26 06:02:40;;;;;;;60.28;22.33;;;;;;;;;;5092912;28;20047;-77
2023/01/26 06:05:07;;;;;;;59.70;23.88;;;;;;;;;;5091281;28;20028;-76
2023/01/26 06:07:34;;;;;;;51.38;22.77;;;;;;;;;;5088845;28;20035;-77
2023/01/26 06:10:00;;;;;;;51.90;22.88;;;;;;;;;;5082774;28;20098;-77
2023/01/26 06:12:30;;;;;;;73.00;21.55;;;;;;;;;;5088320;28;20032;-78
2023/01/26 06:14:56;;;;;;;52.33;19.88;;;;;;;;;;5090488;28;20059;-76
2023/01/26 06:17:22;;;;;;;60.85;19.92;;;;;;;;;;5087634;28;20040;-80
2023/01/26 06:19:48;;;;;;;46.08;19.13;;;;;;;;;;5100913;28;20032;-77
2023/01/26 06:22:14;;;;;;;93.30;21.10;;;;;;;;;;5093760;28;20028;-77
2023/01/26 06:24:41;;;;;;;62.78;20.20;;;;;;;;;;5078970;28;20032;-77
2023/01/26 06:27:11;;;;;;;66.45;21.95;;;;;;;;;;5097210;28;20023;-77
2023/01/26 06:29:37;;;;;;;94.32;22.58;;;;;;;;;;5091183;28;20036;-77
2023/01/26 06:32:03;;;;;;;183.55;26.63;;;;;;;;;;5093274;28;20035;-76
2023/01/26 06:34:29;;;;;;;243.52;25.15;;;;;;;;;;5091597;28;20454;-78
2023/01/26 06:36:56;;;;;;;108.93;22.25;;;;;;;;;;5082143;28;20477;-77
2023/01/26 06:39:22;;;;;;;112.28;25.35;;;;;;;;;;5087489;28;20056;-78
2023/01/26 06:41:48;;;;;;;58.90;20.02;;;;;;;;;;5092468;28;20077;-77
2023/01/26 06:44:14;;;;;;;51.28;19.55;;;;;;;;;;5090237;28;20082;-77
2023/01/26 06:46:40;;;;;;;55.25;18.73;;;;;;;;;;5093771;28;20043;-77
2023/01/26 06:49:06;;;;;;;45.33;17.70;;;;;;;;;;5073429;28;20429;-77
2023/01/26 06:51:38;;;;;;;50.92;17.83;;;;;;;;;;5087721;28;20492;-77
2023/01/26 06:54:04;;;;;;;52.80;18.98;;;;;;;;;;5092686;28;20040;-77
2023/01/26 06:56:30;;;;;;;48.08;16.15;;;;;;;;;;5104274;28;20575;-77
2023/01/26 06:58:56;;;;;;;55.05;18.70;;;;;;;;;;5084284;28;20059;-77
2023/01/26 07:01:24;;;;;;;44.08;15.82;;;;;;;;;;5104410;28;20392;-77
2023/01/26 07:03:51;;;;;;;54.17;17.52;;;;;;;;;;5086856;28;20039;-76
2023/01/26 07:06:17;;;;;;;47.30;15.55;;;;;;;;;;5104785;28;20028;-76
2023/01/26 07:08:43;;;;;;;46.00;16.50;;;;;;;;;;5070043;28;20043;-77
2023/01/26 07:11:10;;;;;;;50.97;15.82;;;;;;;;;;5105590;28;20035;-77
2023/01/26 07:13:36;;;;;;;212.85;86.82;;;;;;;;;;5085721;28;20067;-80
2023/01/26 07:16:05;;;;;;;48.97;11.20;;;;;;;;;;5087146;28;20024;-80
2023/01/26 07:18:31;;;;;;;51.20;11.85;;;;;;;;;;5078278;28;20041;-74
2023/01/26 07:21:04;;;;;;;45.63;8.73;;;;;;;;;;5086348;28;20026;-77
2023/01/26 07:23:30;;;;;;;;;;;;;;;;;;5088784;28;20032;-77
2023/01/26 07:25:57;;;;;;;45.65;8.23;;;;;;;;;;5091608;28;19943;-77
2023/01/26 07:28:24;;;;;;;39.78;6.10;;;;;;;;;;5094488;28;20028;-78
2023/01/26 07:30:50;;;;;;;42.65;7.55;;;;;;;;;;5092003;28;20111;-78
2023/01/26 07:33:16;;;;;;;40.55;6.82;;;;;;;;;;5082554;28;20045;-77
2023/01/26 07:35:42;;;;;;;40.33;7.20;;;;;;;;;;5092406;28;20526;-76
2023/01/26 07:38:08;;;;;;;48.78;7.25;;;;;;;;;;5086568;28;20039;-78
2023/01/26 07:40:34;;;;;;;60.03;8.32;;;;;;;;;;5091994;28;20032;-78
2023/01/26 07:43:00;;;;;;;40.75;5.63;;;;;;;;;;5086572;28;20527;-78
2023/01/26 07:45:27;;;;;;;38.30;4.90;;;;;;;;;;5099407;28;20016;-78
2023/01/26 07:47:56;;;;;;;50.38;6.18;;;;;;;;;;5096092;28;20027;-78
2023/01/26 07:50:26;;;;;;;43.15;6.22;;;;;;;;;;5088432;28;20043;-77
2023/01/26 07:52:52;;;;;;;45.75;5.93;;;;;;;;;;5085574;28;20030;-78
2023/01/26 07:55:19;;;;;;;48.75;5.65;;;;;;;;;;5100212;28;20043;-78
2023/01/26 07:57:47;;;;;;;170.45;82.85;;;;;;;;;;5096452;28;20023;-78
2023/01/26 08:00:14;;;;;;;56.58;9.23;;;;;;;;;;5084937;28;20032;-81
2023/01/26 08:02:40;;;;;;;52.58;8.48;;;;;;;;;;5083650;28;20044;-79
2023/01/26 08:05:06;;;;;;;39.17;5.50;;;;;;;;;;5101315;28;20060;-78
2023/01/26 08:07:33;;;;;;;43.70;5.75;;;;;;;;;;5093084;28;20107;-78
2023/01/26 08:09:59;;;;;;;50.78;5.53;;;;;;;;;;5085123;28;20511;-79
2023/01/26 08:12:25;;;;;;;46.03;6.07;;;;;;;;;;5103545;28;20516;-79
2023/01/26 08:14:51;;;;;;;52.63;5.60;;;;;;;;;;5094157;28;20042;-79
2023/01/26 08:17:18;;;;;;;39.58;5.05;;;;;;;;;;5084568;28;20028;-78
2023/01/26 08:19:44;;;;;;;45.25;5.00;;;;;;;;;;5077796;28;20044;-78
2023/01/26 08:22:10;;;;;;;49.28;5.75;;;;;;;;;;5088688;28;20373;-78
2023/01/26 08:24:36;;;;;;;40.00;5.72;;;;;;;;;;5085168;28;20438;-78
2023/01/26 08:27:02;;;;;;;43.83;5.38;;;;;;;;;;5085911;28;20381;-78
2023/01/26 08:29:28;;;;;;;54.22;6.82;;;;;;;;;;5084668;28;20028;-80
2023/01/26 08:31:55;;;;;;;47.78;4.95;;;;;;;;;;5086179;28;20036;-76
2023/01/26 08:34:21;;;;;;;48.67;5.47;;;;;;;;;;5069687;28;20118;-79
2023/01/26 08:36:47;;;;;;;33.30;4.88;;;;;;;;;;5089628;28;20032;-77
2023/01/26 08:39:13;;;;;;;47.88;8.13;;;;;;;;;;5090700;28;20036;-77
2023/01/26 08:41:39;;;;;;;54.20;6.45;;;;;;;;;;5091713;28;20107;-79
2023/01/26 08:44:06;;;;;;;39.95;4.82;;;;;;;;;;5085747;28;20119;-79
2023/01/26 08:46:32;;;;;;;50.90;7.13;;;;;;;;;;5097122;28;20028;-80
2023/01/26 08:48:58;;;;;;;44.30;8.30;;;;;;;;;;5097740;28;20055;-78
2023/01/26 08:51:24;;;;;;;39.20;5.20;;;;;;;;;;5087362;28;20043;-77
2023/01/26 08:53:53;;;;;;;44.17;6.80;;;;;;;;;;5103781;28;20031;-78
2023/01/26 08:56:19;;;;;;;46.67;7.05;;;;;;;;;;5091240;28;20036;-80
2023/01/26 08:58:45;;;;;;;42.72;7.38;;;;;;;;;;5107602;28;20019;-80
2023/01/26 09:01:12;;;;;;;50.45;6.65;;;;;;;;;;5074840;28;20063;-80
2023/01/26 09:03:39;;;;;;;50.22;6.43;;;;;;;;;;5091552;28;20040;-80
2023/01/26 09:06:06;;;;;;;51.83;7.03;;;;;;;;;;5085818;28;20055;-78
2023/01/26 09:08:32;;;;;;;40.85;7.90;;;;;;;;;;5073939;28;20097;-80
2023/01/26 09:10:58;;;;;;;48.78;6.40;;;;;;;;;;5084477;28;20114;-78
2023/01/26 09:13:24;;;;;;;49.00;6.45;;;;;;;;;;5090488;28;20048;-79
2023/01/26 09:15:50;;;;;;;44.58;6.53;;;;;;;;;;5091383;28;20046;-79
2023/01/26 09:18:16;;;;;;;39.28;5.57;;;;;;;;;;5096977;28;20020;-79
2023/01/26 09:20:43;;;;;;;42.88;6.18;;;;;;;;;;5091292;28;20032;-78
2023/01/26 09:23:11;;;;;;;44.38;6.15;;;;;;;;;;5099567;28;20040;-77
2023/01/26 09:25:37;;;;;;;45.08;5.95;;;;;;;;;;5083692;28;20103;-78
2023/01/26 09:28:04;;;;;;;40.05;6.88;;;;;;;;;;5087450;28;20032;-77
2023/01/26 09:30:30;;;;;;;56.33;8.07;;;;;;;;;;5085352;28;20461;-77
2023/01/26 09:32:58;;;;;;;46.83;5.03;;;;;;;;;;5094967;28;20040;-78
2023/01/26 09:35:24;;;;;;;62.70;15.45;;;;;;;;;;5087818;28;20465;-78
2023/01/26 09:37:50;;;;;;;35.70;5.53;;;;;;;;;;5082903;28;20048;-78
2023/01/26 09:40:19;;;;;;;53.83;10.32;;;;;;;;;;5085411;28;20044;-80
2023/01/26 09:42:54;;;;;;;35.25;5.15;;;;;;;;;;5086969;28;20542;-78
2023/01/26 09:45:24;;;;;;;39.13;4.82;;;;;;;;;;5074463;28;20142;-77
2023/01/26 09:48:02;;;;;;;40.30;5.22;;;;;;;;;;5076781;28;20032;-78
2023/01/26 09:50:31;;;;;;;32.08;4.93;;;;;;;;;;5080359;28;20036;-78
2023/01/26 09:53:27;;;;;;;42.42;7.63;;;;;;;;;;5080276;28;20036;-76
2023/01/26 09:55:54;;;;;;;38.60;5.70;;;;;;;;;;5065934;28;20036;-77
2023/01/26 09:58:38;;;;;;;38.20;4.82;;;;;;;;;;5093742;28;20039;-77
2023/01/26 10:01:09;;;;;;;36.45;5.18;;;;;;;;;;5087577;28;20047;-76
2023/01/26 10:03:41;;;;;;;30.27;3.83;;;;;;;;;;5087841;28;20500;-78
2023/01/26 10:06:20;;;;;;;32.50;5.28;;;;;;;;;;5091975;28;20024;-78
2023/01/26 10:08:47;;;;;;;34.20;4.57;;;;;;;;;;5086025;28;20035;-78
2023/01/26 10:11:51;;;;;;;31.27;4.07;;;;;;;;;;5085457;28;20465;-77
2023/01/26 10:14:17;;;;;;;31.98;4.30;;;;;;;;;;5025493;28;20124;-77
2023/01/26 10:16:44;;;;;;;27.27;4.78;;;;;;;;;;5015367;28;20113;-77
2023/01/26 10:19:31;;;;;;;35.92;5.13;;;;;;;;;;5055761;28;20123;-78
2023/01/26 10:21:59;;;;;;;38.95;6.07;;;;;;;;;;5068733;28;20413;-77
2023/01/26 10:24:25;;;;;;;28.08;4.78;;;;;;;;;;5087187;28;20149;-77
2023/01/26 10:26:52;;;;;;;34.42;3.65;;;;;;;;;;5094220;28;20036;-78
2023/01/26 10:29:19;;;;;;;37.35;5.38;;;;;;;;;;5090366;28;20032;-76
2023/01/26 10:31:45;;;;;;;30.85;4.65;;;;;;;;;;5088361;28;20034;-75
2023/01/26 10:34:22;;;;;;;32.95;4.05;;;;;;;;;;5095232;28;20541;-78
2023/01/26 10:36:48;;;;;;;26.20;3.97;;;;;;;;;;5091705;28;20465;-78
2023/01/26 10:39:15;;;;;;;26.35;3.60;;;;;;;;;;5090546;28;20123;-77
2023/01/26 10:41:55;;;;;;;27.38;5.15;;;;;;;;;;5089081;28;20035;-77
2023/01/26 10:44:31;;;;;;;28.83;4.35;;;;;;;;;;5096975;28;20430;-78
2023/01/26 10:47:05;;;;;;;24.90;5.40;;;;;;;;;;5096483;28;20480;-78
2023/01/26 10:49:31;;;;;;;26.73;3.33;;;;;;;;;;5084716;28;20090;-76
2023/01/26 10:52:07;;;;;;;28.20;3.67;;;;;;;;;;5096328;28;20031;-77
2023/01/26 10:54:35;;;;;;;21.23;3.97;;;;;;;;;;5096935;28;20039;-77
2023/01/26 10:57:10;;;;;;;29.10;4.05;;;;;;;;;;5093371;28;20085;-78
2023/01/26 10:59:36;;;;;;;27.40;4.22;;;;;;;;;;5095250;28;20059;-77
2023/01/26 11:02:11;;;;;;;24.70;4.38;;;;;;;;;;5101222;28;20079;-78
2023/01/26 11:04:37;;;;;;;27.30;4.15;;;;;;;;;;5088692;28;20039;-77
2023/01/26 11:07:22;;;;;;;22.25;4.15;;;;;;;;;;5098718;28;20035;-76
2023/01/26 11:09:50;;;;;;;19.15;3.28;;;;;;;;;;5095927;28;20051;-77
2023/01/26 11:12:18;;;;;;;20.38;3.35;;;;;;;;;;5092208;28;20028;-77
2023/01/26 11:14:58;;;;;;;20.15;3.25;;;;;;;;;;5089843;28;20550;-77
2023/01/26 11:17:25;;;;;;;22.35;3.70;;;;;;;;;;5093528;28;20027;-78
2023/01/26 11:19:57;;;;;;;20.33;3.97;;;;;;;;;;5090869;28;20039;-78
2023/01/26 11:22:49;;;;;;;15.02;2.60;;;;;;;;;;5093829;28;20051;-77
2023/01/26 11:25:20;;;;;;;15.90;2.35;;;;;;;;;;5096467;28;20067;-76
2023/01/26 11:28:09;;;;;;;19.48;3.20;;;;;;;;;;5086002;28;20041;-77
2023/01/26 11:30:41;;;;;;;18.85;2.50;;;;;;;;;;5057436;28;20044;-77
2023/01/26 11:33:14;;;;;;;16.17;1.73;;;;;;;;;;5101952;28;20042;-79
2023/01/26 11:35:46;;;;;;;13.63;2.55;;;;;;;;;;5095275;28;20496;-77
2023/01/26 11:38:15;;;;;;;11.48;2.50;;;;;;;;;;5088363;28;20504;-78
2023/01/26 11:40:41;;;;;;;13.77;2.35;;;;;;;;;;5084786;28;20054;-80
2023/01/26 11:43:26;;;;;;;13.68;2.20;;;;;;;;;;5077165;28;20095;-78
2023/01/26 11:46:04;;;;;;;19.60;3.28;;;;;;;;;;5093113;28;20103;-82
2023/01/26 11:48:56;;;;;;;16.90;2.30;;;;;;;;;;5100999;28;20038;-79
2023/01/26 11:51:32;;;;;;;14.13;2.10;;;;;;;;;;5087742;28;20040;-77
2023/01/26 11:54:16;;;;;;;15.90;3.35;;;;;;;;;;5077963;28;20439;-73
2023/01/26 11:57:12;;;;;;;96.70;40.83;;;;;;;;;;5072616;28;20055;-79
2023/01/26 11:59:39;;;;;;;33.60;10.07;;;;;;;;;;5044937;28;20033;-77
2023/01/26 12:02:17;;;;;;;19.00;2.13;;;;;;;;;;5078402;28;20060;-76
2023/01/26 12:04:45;;;;;;;19.55;3.58;;;;;;;;;;5092889;28;20499;-75
2023/01/26 12:07:14;;;;;;;22.55;3.17;;;;;;;;;;5091439;28;20070;-74
2023/01/26 12:09:42;;;;;;;20.08;3.55;;;;;;;;;;5092223;28;20032;-75
2023/01/26 12:12:11;;;;;;;21.45;3.22;;;;;;;;;;5084276;28;20532;-75
2023/01/26 12:14:58;;;;;;;21.90;3.40;;;;;;;;;;5082245;28;20475;-76
2023/01/26 12:17:27;;;;;;;18.65;3.28;;;;;;;;;;5070928;28;20466;-77
2023/01/26 12:20:11;;;;;;;14.32;3.00;;;;;;;;;;5092058;28;20109;-77
2023/01/26 12:22:39;;;;;;;21.92;3.30;;;;;;;;;;5098836;28;20041;-77
2023/01/26 12:25:28;;;;;;;21.70;4.50;;;;;;;;;;5087821;28;20493;-76
2023/01/26 12:27:58;;;;;;;17.13;3.63;;;;;;;;;;5090474;28;20032;-77
2023/01/26 12:30:30;;;;;;;17.77;3.00;;;;;;;;;;5091533;28;20032;-76
2023/01/26 12:32:56;;;;;;;25.08;3.42;;;;;;;;;;5100666;28;20031;-76
2023/01/26 12:35:43;;;;;;;15.23;2.38;;;;;;;;;;5084532;28;20086;-80
2023/01/26 12:38:30;;;;;;;18.73;3.60;;;;;;;;;;5088567;28;20037;-76
2023/01/26 12:40:56;;;;;;;18.27;3.03;;;;;;;;;;5090116;28;20432;-78
2023/01/26 12:43:23;;;;;;;18.20;4.30;;;;;;;;;;5093760;28;20123;-77
2023/01/26 12:45:51;;;;;;;20.17;4.05;;;;;;;;;;5071079;28;20024;-80
2023/01/26 12:48:25;;;;;;;17.00;2.08;;;;;;;;;;5083418;28;20033;-74
2023/01/26 12:50:54;;;;;;;15.82;2.10;;;;;;;;;;5094702;28;20043;-77
2023/01/26 12:53:31;;;;;;;18.52;2.80;;;;;;;;;;5094323;28;20035;-75
2023/01/26 12:56:06;;;;;;;26.23;4.25;;;;;;;;;;5081614;28;20035;-75
2023/01/26 12:58:35;;;;;;;17.17;2.75;;;;;;;;;;5099983;28;20046;-75
2023/01/26 13:01:05;;;;;;;21.27;2.70;;;;;;;;;;5091083;28;20036;-76
2023/01/26 13:03:37;;;;;;;17.17;3.15;;;;;;;;;;5080584;28;20431;-76
2023/01/26 13:06:09;;;;;;;14.55;2.95;;;;;;;;;;5088271;28;20504;-76
2023/01/26 13:08:35;;;;;;;14.38;2.63;;;;;;;;;;5090107;28;20028;-81
2023/01/26 13:11:08;;;;;;;14.75;2.38;;;;;;;;;;5077720;28;20017;-76
2023/01/26 13:13:53;;;;;;;20.00;2.17;;;;;;;;;;5073053;28;20040;-76
2023/01/26 13:16:25;;;;;;;10.65;2.22;;;;;;;;;;5091235;28;20422;-76
2023/01/26 13:18:52;;;;;;;11.82;2.08;;;;;;;;;;5085148;28;20033;-76
2023/01/26 13:21:27;;;;;;;10.52;1.90;;;;;;;;;;5089683;28;20039;-75
2023/01/26 13:23:54;;;;;;;16.70;2.30;;;;;;;;;;5076045;28;20084;-76
2023/01/26 13:26:23;;;;;;;10.82;2.30;;;;;;;;;;5089115;28;20119;-75
2023/01/26 13:28:50;;;;;;;12.95;1.83;;;;;;;;;;5091348;28;20406;-77
2023/01/26 13:31:29;;;;;;;12.23;2.47;;;;;;;;;;5090479;28;20032;-76
2023/01/26 13:33:55;;;;;;;10.32;2.65;;;;;;;;;;5073001;28;20558;-76
2023/01/26 13:36:22;;;;;;;12.85;1.70;;;;;;;;;;5091536;28;20528;-76
2023/01/26 13:38:55;;;;;;;11.50;1.98;;;;;;;;;;5094571;28;20403;-76
2023/01/26 13:41:21;;;;;;;22.85;4.35;;;;;;;;;;5074308;28;20024;-78
2023/01/26 13:44:10;;;;;;;13.05;2.72;;;;;;;;;;5094146;28;20088;-76
2023/01/26 13:46:43;;;;;;;10.88;1.88;;;;;;;;;;5081555;28;20117;-77
2023/01/26 13:49:26;;;;;;;11.63;2.33;;;;;;;;;;5113247;28;20043;-76
2023/01/26 13:51:52;;;;;;;21.13;2.30;;;;;;;;;;5081163;28;20024;-76
2023/01/26 13:54:18;;;;;;;16.73;3.10;;;;;;;;;;5076970;28;20059;-76
2023/01/26 13:57:01;;;;;;;14.50;2.92;;;;;;;;;;5091988;28;20047;-76
2023/01/26 13:59:27;;;;;;;12.55;2.88;;;;;;;;;;5093777;28;20032;-77
2023/01/26 14:01:54;;;;;;;17.92;2.60;;;;;;;;;;5094807;28;20070;-76
2023/01/26 14:04:21;;;;;;;23.05;2.33;;;;;;;;;;5080396;28;20040;-76
2023/01/26 14:06:51;;;;;;;17.65;3.05;;;;;;;;;;5082071;28;20032;-79
2023/01/26 14:09:17;;;;;;;20.23;4.13;;;;;;;;;;5094879;28;20024;-76
2023/01/26 14:11:43;;;;;;;16.35;3.08;;;;;;;;;;5092972;28;20100;-76
2023/01/26 14:14:39;;;;;;;12.20;2.72;;;;;;;;;;5083109;28;20471;-76
2023/01/26 14:17:06;;;;;;;12.85;2.30;;;;;;;;;;5065931;28;20559;-76
2023/01/26 14:19:38;;;;;;;11.45;1.95;;;;;;;;;;5092755;28;20107;-75
2023/01/26 14:22:11;;;;;;;13.98;2.22;;;;;;;;;;5097554;28;20039;-76
2023/01/26 14:24:42;;;;;;;14.75;2.13;;;;;;;;;;5098447;28;20024;-76
2023/01/26 14:27:26;;;;;;;13.50;2.83;;;;;;;;;;5077549;28;20032;-77
2023/01/26 14:29:52;;;;;;;13.60;2.63;;;;;;;;;;5090732;28;20031;-77
2023/01/26 14:32:18;;;;;;;18.90;3.58;;;;;;;;;;5099467;28;20023;-76
2023/01/26 14:34:57;;;;;;;13.38;2.33;;;;;;;;;;5089280;28;20119;-77
2023/01/26 14:37:24;;;;;;;19.00;2.28;;;;;;;;;;5070066;28;20059;-78
2023/01/26 14:40:09;;;;;;;12.65;1.90;;;;;;;;;;5098380;28;20032;-77
2023/01/26 14:42:35;;;;;;;15.48;2.10;;;;;;;;;;5089421;28;20059;-81
2023/01/26 14:45:04;;;;;;;19.55;4.13;;;;;;;;;;5100257;28;20106;-80
2023/01/26 14:47:33;;;;;;;16.02;3.25;;;;;;;;;;5091908;28;20122;-82
2023/01/26 14:50:01;;;;;;;17.65;2.35;;;;;;;;;;5102972;28;20126;-81
2023/01/26 14:52:32;;;;;;;22.25;4.00;;;;;;;;;;5094527;28;20028;-79
2023/01/26 14:55:02;;;;;;;28.37;11.63;;;;;;;;;;5089143;28;20024;-81
2023/01/26 14:57:30;;;;;;;13.35;2.67;;;;;;;;;;5088637;28;20121;-81
2023/01/26 14:59:58;;;;;;;15.02;2.20;;;;;;;;;;5075574;28;20623;-76
2023/01/26 15:02:25;;;;;;;22.77;4.45;;;;;;;;;;5087751;28;20080;-79
2023/01/26 15:05:02;;;;;;;23.88;4.35;;;;;;;;;;5087461;28;20036;-77
2023/01/26 15:07:36;;;;;;;17.13;2.67;;;;;;;;;;5072328;28;20031;-78
2023/01/26 15:10:22;;;;;;;19.23;3.50;;;;;;;;;;5091852;28;20035;-80
2023/01/26 15:12:55;;;;;;;19.90;3.17;;;;;;;;;;5056865;28;20666;-81
2023/01/26 15:15:22;;;;;;;16.20;2.83;;;;;;;;;;5094931;28;20035;-79
2023/01/26 15:17:59;;;;;;;14.32;2.38;;;;;;;;;;5095316;28;20055;-80
2023/01/26 15:20:28;;;;;;;20.75;2.58;;;;;;;;;;5091575;28;20020;-79
2023/01/26 15:22:54;;;;;;;12.18;2.33;;;;;;;;;;5092596;28;20039;-79